sensor_id;sensor_type;location;lat;lon;timestamp;P1;durP1;ratioP1;P2;durP2;ratioP2
23986;SDS011;12514;52.140;5.602;2022-07-06T00:01:44;2.15;;;1.00;;
23986;SDS011;12514;52.140;5.602;2022-07-06T00:04:10;2.15;;;1.00;;
23986;SDS011;12514;52.140;5.602;2022-07-06T00:06:35;3.00;;;1.10;;
23986;SDS011;12514;52.140;5.602;2022-07-06T00:09:02;1.75;;;1.13;;
23986;SDS011;12514;52.140;5.602;2022-07-06T00:14:50;1.88;;;1.58;;
23986;SDS011;12514;52.140;5.602;2022-07-06T00:17:15;1.40;;;1.30;;
23986;SDS011;12514;52.140;5.602;2022-07-06T00:19:41;2.95;;;1.42;;
23986;SDS011;12514;52.140;5.602;2022-07-06T00:22:06;2.15;;;1.40;;
23986;SDS011;12514;52.140;5.602;2022-07-06T00:24:32;1.33;;;1.27;;
23986;SDS011;12514;52.140;5.602;2022-07-06T00:30:20;3.05;;;1.27;;
23986;SDS011;12514;52.140;5.602;2022-07-06T00:32:45;1.77;;;1.42;;
23986;SDS011;12514;52.140;5.602;2022-07-06T00:35:11;1.25;;;1.15;;
23986;SDS011;12514;52.140;5.602;2022-07-06T00:37:36;2.60;;;1.33;;
23986;SDS011;12514;52.140;5.602;2022-07-06T00:40:02;2.90;;;1.45;;
23986;SDS011;12514;52.140;5.602;2022-07-06T00:42:28;5.40;;;1.10;;
23986;SDS011;12514;52.140;5.602;2022-07-06T00:44:53;3.03;;;1.55;;
23986;SDS011;12514;52.140;5.602;2022-07-06T00:47:19;1.40;;;1.30;;
23986;SDS011;12514;52.140;5.602;2022-07-06T00:49:44;1.48;;;1.38;;
23986;SDS011;12514;52.140;5.602;2022-07-06T00:52:29;1.88;;;1.10;;
23986;SDS011;12514;52.140;5.602;2022-07-06T00:54:54;3.05;;;1.50;;
23986;SDS011;12514;52.140;5.602;2022-07-06T00:57:20;1.58;;;1.45;;
23986;SDS011;12514;52.140;5.602;2022-07-06T00:59:46;3.72;;;1.60;;
23986;SDS011;12514;52.140;5.602;2022-07-06T01:02:11;2.42;;;1.40;;
23986;SDS011;12514;52.140;5.602;2022-07-06T01:04:37;3.35;;;1.65;;
23986;SDS011;12514;52.140;5.602;2022-07-06T01:07:02;1.70;;;1.60;;
23986;SDS011;12514;52.140;5.602;2022-07-06T01:09:28;3.00;;;1.17;;
23986;SDS011;12514;52.140;5.602;2022-07-06T01:15:20;1.60;;;1.20;;
23986;SDS011;12514;52.140;5.602;2022-07-06T01:17:47;2.65;;;1.58;;
23986;SDS011;12514;52.140;5.602;2022-07-06T01:22:43;2.20;;;1.52;;
23986;SDS011;12514;52.140;5.602;2022-07-06T01:25:10;2.15;;;1.45;;
23986;SDS011;12514;52.140;5.602;2022-07-06T01:27:37;2.78;;;1.63;;
23986;SDS011;12514;52.140;5.602;2022-07-06T01:30:05;4.35;;;1.55;;
23986;SDS011;12514;52.140;5.602;2022-07-06T01:32:32;2.17;;;1.42;;
23986;SDS011;12514;52.140;5.602;2022-07-06T01:34:59;2.60;;;1.27;;
23986;SDS011;12514;52.140;5.602;2022-07-06T01:37:25;4.10;;;1.60;;
23986;SDS011;12514;52.140;5.602;2022-07-06T01:39:51;2.63;;;1.45;;
23986;SDS011;12514;52.140;5.602;2022-07-06T01:45:38;1.92;;;1.38;;
23986;SDS011;12514;52.140;5.602;2022-07-06T01:48:07;2.40;;;1.95;;
23986;SDS011;12514;52.140;5.602;2022-07-06T01:50:33;1.63;;;1.33;;
23986;SDS011;12514;52.140;5.602;2022-07-06T01:52:59;1.65;;;1.30;;
23986;SDS011;12514;52.140;5.602;2022-07-06T01:55:25;1.90;;;1.48;;
23986;SDS011;12514;52.140;5.602;2022-07-06T01:57:50;2.15;;;1.25;;
23986;SDS011;12514;52.140;5.602;2022-07-06T02:00:16;4.30;;;1.75;;
23986;SDS011;12514;52.140;5.602;2022-07-06T02:02:41;1.35;;;1.08;;
23986;SDS011;12514;52.140;5.602;2022-07-06T02:05:07;3.63;;;1.50;;
23986;SDS011;12514;52.140;5.602;2022-07-06T02:07:33;2.20;;;1.75;;
23986;SDS011;12514;52.140;5.602;2022-07-06T02:09:58;1.88;;;1.63;;
23986;SDS011;12514;52.140;5.602;2022-07-06T02:15:46;1.58;;;1.48;;
23986;SDS011;12514;52.140;5.602;2022-07-06T02:18:11;2.05;;;1.30;;
23986;SDS011;12514;52.140;5.602;2022-07-06T02:20:37;1.55;;;1.45;;
23986;SDS011;12514;52.140;5.602;2022-07-06T02:23:03;5.38;;;1.50;;
23986;SDS011;12514;52.140;5.602;2022-07-06T02:25:28;1.40;;;1.30;;
23986;SDS011;12514;52.140;5.602;2022-07-06T02:27:54;2.00;;;1.35;;
23986;SDS011;12514;52.140;5.602;2022-07-06T02:30:20;1.33;;;1.23;;
23986;SDS011;12514;52.140;5.602;2022-07-06T02:32:46;2.58;;;1.83;;
23986;SDS011;12514;52.140;5.602;2022-07-06T02:35:11;2.53;;;1.52;;
23986;SDS011;12514;52.140;5.602;2022-07-06T02:37:37;1.92;;;1.40;;
23986;SDS011;12514;52.140;5.602;2022-07-06T02:40:04;1.60;;;1.30;;
23986;SDS011;12514;52.140;5.602;2022-07-06T02:45:52;2.28;;;1.48;;
23986;SDS011;12514;52.140;5.602;2022-07-06T02:48:17;1.52;;;1.30;;
23986;SDS011;12514;52.140;5.602;2022-07-06T02:50:46;1.40;;;1.30;;
23986;SDS011;12514;52.140;5.602;2022-07-06T02:53:12;1.90;;;1.23;;
23986;SDS011;12514;52.140;5.602;2022-07-06T02:55:37;1.55;;;1.45;;
23986;SDS011;12514;52.140;5.602;2022-07-06T02:58:03;6.10;;;1.35;;
23986;SDS011;12514;52.140;5.602;2022-07-06T03:00:29;1.35;;;1.25;;
23986;SDS011;12514;52.140;5.602;2022-07-06T03:02:54;2.85;;;1.30;;
23986;SDS011;12514;52.140;5.602;2022-07-06T03:05:20;2.90;;;1.50;;
23986;SDS011;12514;52.140;5.602;2022-07-06T03:07:45;1.50;;;1.40;;
23986;SDS011;12514;52.140;5.602;2022-07-06T03:10:11;2.80;;;1.40;;
23986;SDS011;12514;52.140;5.602;2022-07-06T03:15:59;1.75;;;1.38;;
23986;SDS011;12514;52.140;5.602;2022-07-06T03:18:24;4.93;;;1.63;;
23986;SDS011;12514;52.140;5.602;2022-07-06T03:20:50;1.65;;;1.30;;
23986;SDS011;12514;52.140;5.602;2022-07-06T03:23:16;1.73;;;1.40;;
23986;SDS011;12514;52.140;5.602;2022-07-06T03:25:41;1.58;;;1.33;;
23986;SDS011;12514;52.140;5.602;2022-07-06T03:28:07;3.17;;;1.50;;
23986;SDS011;12514;52.140;5.602;2022-07-06T03:30:32;2.25;;;1.50;;
23986;SDS011;12514;52.140;5.602;2022-07-06T03:32:58;3.47;;;1.48;;
23986;SDS011;12514;52.140;5.602;2022-07-06T03:35:23;2.63;;;1.52;;
23986;SDS011;12514;52.140;5.602;2022-07-06T03:37:49;1.50;;;1.20;;
23986;SDS011;12514;52.140;5.602;2022-07-06T03:40:15;1.50;;;1.40;;
23986;SDS011;12514;52.140;5.602;2022-07-06T03:46:02;1.90;;;1.23;;
23986;SDS011;12514;52.140;5.602;2022-07-06T03:48:28;3.03;;;1.30;;
23986;SDS011;12514;52.140;5.602;2022-07-06T03:50:54;4.20;;;1.55;;
23986;SDS011;12514;52.140;5.602;2022-07-06T03:53:20;1.75;;;1.17;;
23986;SDS011;12514;52.140;5.602;2022-07-06T03:55:46;3.75;;;1.45;;
23986;SDS011;12514;52.140;5.602;2022-07-06T03:58:30;3.72;;;1.38;;
23986;SDS011;12514;52.140;5.602;2022-07-06T04:00:56;3.63;;;1.10;;
23986;SDS011;12514;52.140;5.602;2022-07-06T04:03:22;2.92;;;1.15;;
23986;SDS011;12514;52.140;5.602;2022-07-06T04:05:47;1.20;;;1.10;;
23986;SDS011;12514;52.140;5.602;2022-07-06T04:08:13;1.92;;;1.20;;
23986;SDS011;12514;52.140;5.602;2022-07-06T04:10:38;2.58;;;1.20;;
23986;SDS011;12514;52.140;5.602;2022-07-06T04:16:26;1.83;;;1.55;;
23986;SDS011;12514;52.140;5.602;2022-07-06T04:18:51;1.80;;;1.38;;
23986;SDS011;12514;52.140;5.602;2022-07-06T04:21:17;1.77;;;1.40;;
23986;SDS011;12514;52.140;5.602;2022-07-06T04:23:42;3.00;;;1.05;;
23986;SDS011;12514;52.140;5.602;2022-07-06T04:26:08;1.35;;;1.20;;
23986;SDS011;12514;52.140;5.602;2022-07-06T04:28:34;3.08;;;1.17;;
23986;SDS011;12514;52.140;5.602;2022-07-06T04:30:59;1.83;;;1.23;;
23986;SDS011;12514;52.140;5.602;2022-07-06T04:33:25;1.40;;;1.27;;
23986;SDS011;12514;52.140;5.602;2022-07-06T04:35:50;1.60;;;1.20;;
23986;SDS011;12514;52.140;5.602;2022-07-06T04:38:16;2.47;;;1.20;;
23986;SDS011;12514;52.140;5.602;2022-07-06T04:40:42;2.40;;;1.00;;
23986;SDS011;12514;52.140;5.602;2022-07-06T04:47:09;1.08;;;0.90;;
23986;SDS011;12514;52.140;5.602;2022-07-06T04:49:34;2.38;;;1.20;;
23986;SDS011;12514;52.140;5.602;2022-07-06T04:52:00;2.75;;;1.00;;
23986;SDS011;12514;52.140;5.602;2022-07-06T04:54:25;1.58;;;0.93;;
23986;SDS011;12514;52.140;5.602;2022-07-06T04:56:51;1.45;;;1.33;;
23986;SDS011;12514;52.140;5.602;2022-07-06T04:59:16;2.10;;;0.90;;
23986;SDS011;12514;52.140;5.602;2022-07-06T05:01:42;5.78;;;1.38;;
23986;SDS011;12514;52.140;5.602;2022-07-06T05:04:08;1.73;;;0.90;;
23986;SDS011;12514;52.140;5.602;2022-07-06T05:06:33;1.88;;;1.20;;
23986;SDS011;12514;52.140;5.602;2022-07-06T05:08:59;1.58;;;1.00;;
23986;SDS011;12514;52.140;5.602;2022-07-06T05:11:26;0.82;;;0.82;;
23986;SDS011;12514;52.140;5.602;2022-07-06T05:13:52;2.33;;;1.00;;
23986;SDS011;12514;52.140;5.602;2022-07-06T05:16:18;0.95;;;0.93;;
23986;SDS011;12514;52.140;5.602;2022-07-06T05:18:43;1.23;;;0.82;;
23986;SDS011;12514;52.140;5.602;2022-07-06T05:21:09;1.10;;;1.08;;
23986;SDS011;12514;52.140;5.602;2022-07-06T05:23:35;1.70;;;1.10;;
23986;SDS011;12514;52.140;5.602;2022-07-06T05:26:00;1.17;;;0.80;;
23986;SDS011;12514;52.140;5.602;2022-07-06T05:31:48;2.88;;;1.20;;
23986;SDS011;12514;52.140;5.602;2022-07-06T05:34:13;1.13;;;1.02;;
23986;SDS011;12514;52.140;5.602;2022-07-06T05:36:39;2.25;;;0.80;;
23986;SDS011;12514;52.140;5.602;2022-07-06T05:39:05;2.35;;;1.00;;
23986;SDS011;12514;52.140;5.602;2022-07-06T05:41:30;3.10;;;0.88;;
23986;SDS011;12514;52.140;5.602;2022-07-06T05:43:56;1.83;;;1.00;;
23986;SDS011;12514;52.140;5.602;2022-07-06T05:46:21;1.52;;;0.75;;
23986;SDS011;12514;52.140;5.602;2022-07-06T05:48:47;1.95;;;0.93;;
23986;SDS011;12514;52.140;5.602;2022-07-06T05:51:31;1.15;;;0.95;;
23986;SDS011;12514;52.140;5.602;2022-07-06T05:53:57;1.23;;;1.00;;
23986;SDS011;12514;52.140;5.602;2022-07-06T05:56:23;3.72;;;1.00;;
23986;SDS011;12514;52.140;5.602;2022-07-06T05:58:48;1.80;;;0.93;;
23986;SDS011;12514;52.140;5.602;2022-07-06T06:01:14;1.73;;;0.90;;
23986;SDS011;12514;52.140;5.602;2022-07-06T06:03:39;3.75;;;0.70;;
23986;SDS011;12514;52.140;5.602;2022-07-06T06:06:05;2.63;;;1.00;;
23986;SDS011;12514;52.140;5.602;2022-07-06T06:08:31;0.60;;;0.60;;
23986;SDS011;12514;52.140;5.602;2022-07-06T06:10:56;1.52;;;0.70;;
23986;SDS011;12514;52.140;5.602;2022-07-06T06:16:44;2.80;;;0.75;;
23986;SDS011;12514;52.140;5.602;2022-07-06T06:19:09;3.35;;;0.85;;
23986;SDS011;12514;52.140;5.602;2022-07-06T06:21:35;4.28;;;0.70;;
23986;SDS011;12514;52.140;5.602;2022-07-06T06:24:01;3.60;;;0.68;;
23986;SDS011;12514;52.140;5.602;2022-07-06T06:26:26;0.68;;;0.60;;
23986;SDS011;12514;52.140;5.602;2022-07-06T06:28:52;1.55;;;0.80;;
23986;SDS011;12514;52.140;5.602;2022-07-06T06:31:18;3.20;;;0.65;;
23986;SDS011;12514;52.140;5.602;2022-07-06T06:33:44;0.70;;;0.43;;
23986;SDS011;12514;52.140;5.602;2022-07-06T06:36:09;1.73;;;0.85;;
23986;SDS011;12514;52.140;5.602;2022-07-06T06:38:35;1.27;;;0.50;;
23986;SDS011;12514;52.140;5.602;2022-07-06T06:41:01;1.92;;;0.82;;
23986;SDS011;12514;52.140;5.602;2022-07-06T06:46:49;4.35;;;0.80;;
23986;SDS011;12514;52.140;5.602;2022-07-06T06:49:15;1.33;;;0.50;;
23986;SDS011;12514;52.140;5.602;2022-07-06T06:51:41;4.65;;;0.73;;
23986;SDS011;12514;52.140;5.602;2022-07-06T06:54:06;1.13;;;0.60;;
23986;SDS011;12514;52.140;5.602;2022-07-06T06:56:32;3.35;;;0.80;;
23986;SDS011;12514;52.140;5.602;2022-07-06T07:02:59;2.17;;;0.43;;
23986;SDS011;12514;52.140;5.602;2022-07-06T07:05:24;3.83;;;0.60;;
23986;SDS011;12514;52.140;5.602;2022-07-06T07:07:50;2.03;;;0.80;;
23986;SDS011;12514;52.140;5.602;2022-07-06T07:10:16;2.40;;;0.70;;
23986;SDS011;12514;52.140;5.602;2022-07-06T07:12:42;1.10;;;0.52;;
23986;SDS011;12514;52.140;5.602;2022-07-06T07:15:12;2.80;;;0.85;;
23986;SDS011;12514;52.140;5.602;2022-07-06T07:17:38;1.42;;;0.50;;
23986;SDS011;12514;52.140;5.602;2022-07-06T07:20:05;1.75;;;0.40;;
23986;SDS011;12514;52.140;5.602;2022-07-06T07:22:32;4.38;;;0.60;;
23986;SDS011;12514;52.140;5.602;2022-07-06T07:24:57;1.33;;;0.30;;
23986;SDS011;12514;52.140;5.602;2022-07-06T07:27:24;2.00;;;0.40;;
23986;SDS011;12514;52.140;5.602;2022-07-06T07:29:50;3.92;;;0.35;;
23986;SDS011;12514;52.140;5.602;2022-07-06T07:32:16;1.55;;;0.40;;
23986;SDS011;12514;52.140;5.602;2022-07-06T07:34:41;1.42;;;0.50;;
23986;SDS011;12514;52.140;5.602;2022-07-06T07:37:07;1.88;;;0.80;;
23986;SDS011;12514;52.140;5.602;2022-07-06T07:39:33;1.70;;;0.38;;
23986;SDS011;12514;52.140;5.602;2022-07-06T07:41:58;0.32;;;0.32;;
23986;SDS011;12514;52.140;5.602;2022-07-06T07:44:24;0.68;;;0.20;;
23986;SDS011;12514;52.140;5.602;2022-07-06T07:46:52;0.55;;;0.10;;
23986;SDS011;12514;52.140;5.602;2022-07-06T07:49:20;0.73;;;0.30;;
23986;SDS011;12514;52.140;5.602;2022-07-06T07:51:46;1.15;;;0.40;;
23986;SDS011;12514;52.140;5.602;2022-07-06T07:54:12;0.40;;;0.28;;
23986;SDS011;12514;52.140;5.602;2022-07-06T07:56:38;2.88;;;0.40;;
23986;SDS011;12514;52.140;5.602;2022-07-06T08:02:28;0.68;;;0.20;;
23986;SDS011;12514;52.140;5.602;2022-07-06T08:04:54;1.17;;;0.30;;
23986;SDS011;12514;52.140;5.602;2022-07-06T08:07:20;1.23;;;0.20;;
23986;SDS011;12514;52.140;5.602;2022-07-06T08:09:46;0.95;;;0.30;;
23986;SDS011;12514;52.140;5.602;2022-07-06T08:12:11;1.67;;;0.60;;
23986;SDS011;12514;52.140;5.602;2022-07-06T08:14:37;0.68;;;0.30;;
23986;SDS011;12514;52.140;5.602;2022-07-06T08:17:03;0.98;;;0.30;;
23986;SDS011;12514;52.140;5.602;2022-07-06T08:19:29;0.85;;;0.30;;
23986;SDS011;12514;52.140;5.602;2022-07-06T08:21:55;1.38;;;0.30;;
23986;SDS011;12514;52.140;5.602;2022-07-06T08:24:21;0.70;;;0.38;;
23986;SDS011;12514;52.140;5.602;2022-07-06T08:26:47;1.75;;;0.20;;
23986;SDS011;12514;52.140;5.602;2022-07-06T08:32:41;0.88;;;0.38;;
23986;SDS011;12514;52.140;5.602;2022-07-06T08:35:08;0.85;;;0.20;;
23986;SDS011;12514;52.140;5.602;2022-07-06T08:37:34;0.40;;;0.20;;
23986;SDS011;12514;52.140;5.602;2022-07-06T08:40:00;2.70;;;0.45;;
23986;SDS011;12514;52.140;5.602;2022-07-06T08:42:34;0.75;;;0.35;;
23986;SDS011;12514;52.140;5.602;2022-07-06T08:45:04;2.15;;;0.30;;
23986;SDS011;12514;52.140;5.602;2022-07-06T08:47:31;0.93;;;0.20;;
23986;SDS011;12514;52.140;5.602;2022-07-06T08:49:57;1.45;;;0.32;;
23986;SDS011;12514;52.140;5.602;2022-07-06T08:52:23;0.40;;;0.40;;
23986;SDS011;12514;52.140;5.602;2022-07-06T08:54:50;0.98;;;0.40;;
23986;SDS011;12514;52.140;5.602;2022-07-06T08:57:16;1.23;;;0.30;;
23986;SDS011;12514;52.140;5.602;2022-07-06T08:59:42;1.08;;;0.20;;
23986;SDS011;12514;52.140;5.602;2022-07-06T09:02:11;1.30;;;0.30;;
23986;SDS011;12514;52.140;5.602;2022-07-06T09:04:47;0.25;;;0.10;;
23986;SDS011;12514;52.140;5.602;2022-07-06T09:07:15;3.60;;;0.40;;
23986;SDS011;12514;52.140;5.602;2022-07-06T09:09:42;2.90;;;0.50;;
23986;SDS011;12514;52.140;5.602;2022-07-06T09:12:11;0.60;;;0.40;;
23986;SDS011;12514;52.140;5.602;2022-07-06T09:18:54;0.93;;;0.28;;
23986;SDS011;12514;52.140;5.602;2022-07-06T09:21:30;7.38;;;0.50;;
23986;SDS011;12514;52.140;5.602;2022-07-06T09:23:58;0.75;;;0.30;;
23986;SDS011;12514;52.140;5.602;2022-07-06T09:26:25;2.53;;;0.50;;
23986;SDS011;12514;52.140;5.602;2022-07-06T09:28:52;0.85;;;0.32;;
23986;SDS011;12514;52.140;5.602;2022-07-06T09:31:20;1.65;;;0.32;;
23986;SDS011;12514;52.140;5.602;2022-07-06T09:33:57;0.30;;;0.10;;
23986;SDS011;12514;52.140;5.602;2022-07-06T09:36:44;1.33;;;0.63;;
23986;SDS011;12514;52.140;5.602;2022-07-06T09:39:18;0.40;;;0.30;;
23986;SDS011;12514;52.140;5.602;2022-07-06T09:41:47;0.40;;;0.20;;
23986;SDS011;12514;52.140;5.602;2022-07-06T09:44:28;0.93;;;0.40;;
23986;SDS011;12514;52.140;5.602;2022-07-06T09:46:57;0.20;;;0.20;;
23986;SDS011;12514;52.140;5.602;2022-07-06T09:49:24;0.57;;;0.17;;
23986;SDS011;12514;52.140;5.602;2022-07-06T09:51:52;1.65;;;0.20;;
23986;SDS011;12514;52.140;5.602;2022-07-06T09:54:20;0.73;;;0.20;;
23986;SDS011;12514;52.140;5.602;2022-07-06T09:56:47;0.73;;;0.20;;
23986;SDS011;12514;52.140;5.602;2022-07-06T09:59:23;0.20;;;0.20;;
23986;SDS011;12514;52.140;5.602;2022-07-06T10:01:52;0.30;;;0.13;;
23986;SDS011;12514;52.140;5.602;2022-07-06T10:04:22;1.33;;;0.30;;
23986;SDS011;12514;52.140;5.602;2022-07-06T10:06:49;1.20;;;0.40;;
23986;SDS011;12514;52.140;5.602;2022-07-06T10:09:15;1.30;;;0.30;;
23986;SDS011;12514;52.140;5.602;2022-07-06T10:11:46;0.73;;;0.35;;
23986;SDS011;12514;52.140;5.602;2022-07-06T10:14:15;1.08;;;0.40;;
23986;SDS011;12514;52.140;5.602;2022-07-06T10:16:43;1.23;;;0.50;;
23986;SDS011;12514;52.140;5.602;2022-07-06T10:19:11;1.70;;;0.35;;
23986;SDS011;12514;52.140;5.602;2022-07-06T10:21:37;0.63;;;0.28;;
23986;SDS011;12514;52.140;5.602;2022-07-06T10:24:04;1.88;;;0.32;;
23986;SDS011;12514;52.140;5.602;2022-07-06T10:26:35;1.50;;;0.40;;
23986;SDS011;12514;52.140;5.602;2022-07-06T10:29:04;1.13;;;0.30;;
23986;SDS011;12514;52.140;5.602;2022-07-06T10:31:31;2.78;;;0.35;;
23986;SDS011;12514;52.140;5.602;2022-07-06T10:34:02;1.35;;;0.50;;
23986;SDS011;12514;52.140;5.602;2022-07-06T10:36:30;1.95;;;0.55;;
23986;SDS011;12514;52.140;5.602;2022-07-06T10:38:55;1.13;;;0.55;;
23986;SDS011;12514;52.140;5.602;2022-07-06T10:41:31;0.60;;;0.30;;
23986;SDS011;12514;52.140;5.602;2022-07-06T10:43:58;1.55;;;0.55;;
23986;SDS011;12514;52.140;5.602;2022-07-06T10:46:40;0.65;;;0.50;;
23986;SDS011;12514;52.140;5.602;2022-07-06T10:49:14;2.42;;;0.40;;
23986;SDS011;12514;52.140;5.602;2022-07-06T10:51:41;0.60;;;0.45;;
23986;SDS011;12514;52.140;5.602;2022-07-06T10:54:07;2.40;;;0.40;;
23986;SDS011;12514;52.140;5.602;2022-07-06T10:56:42;1.25;;;0.30;;
23986;SDS011;12514;52.140;5.602;2022-07-06T10:59:11;0.70;;;0.47;;
23986;SDS011;12514;52.140;5.602;2022-07-06T11:04:45;1.17;;;0.20;;
23986;SDS011;12514;52.140;5.602;2022-07-06T11:07:14;1.73;;;0.43;;
23986;SDS011;12514;52.140;5.602;2022-07-06T11:10:01;0.55;;;0.32;;
23986;SDS011;12514;52.140;5.602;2022-07-06T11:12:27;2.20;;;0.40;;
23986;SDS011;12514;52.140;5.602;2022-07-06T11:14:56;2.28;;;0.40;;
23986;SDS011;12514;52.140;5.602;2022-07-06T11:17:23;4.85;;;0.70;;
23986;SDS011;12514;52.140;5.602;2022-07-06T11:19:55;0.75;;;0.30;;
23986;SDS011;12514;52.140;5.602;2022-07-06T11:22:22;0.60;;;0.40;;
23986;SDS011;12514;52.140;5.602;2022-07-06T11:24:49;2.58;;;0.30;;
23986;SDS011;12514;52.140;5.602;2022-07-06T11:27:17;1.38;;;0.30;;
23986;SDS011;12514;52.140;5.602;2022-07-06T11:29:43;0.30;;;0.30;;
23986;SDS011;12514;52.140;5.602;2022-07-06T11:32:10;1.35;;;0.30;;
23986;SDS011;12514;52.140;5.602;2022-07-06T11:34:39;0.70;;;0.57;;
23986;SDS011;12514;52.140;5.602;2022-07-06T11:37:09;0.43;;;0.30;;
23986;SDS011;12514;52.140;5.602;2022-07-06T11:39:40;0.88;;;0.50;;
23986;SDS011;12514;52.140;5.602;2022-07-06T11:42:10;0.55;;;0.20;;
23986;SDS011;12514;52.140;5.602;2022-07-06T11:44:37;0.30;;;0.10;;
23986;SDS011;12514;52.140;5.602;2022-07-06T11:47:04;1.45;;;0.38;;
23986;SDS011;12514;52.140;5.602;2022-07-06T11:49:31;2.17;;;0.40;;
23986;SDS011;12514;52.140;5.602;2022-07-06T11:51:59;2.03;;;0.22;;
23986;SDS011;12514;52.140;5.602;2022-07-06T11:54:25;1.27;;;0.30;;
23986;SDS011;12514;52.140;5.602;2022-07-06T11:56:52;0.98;;;0.45;;
23986;SDS011;12514;52.140;5.602;2022-07-06T11:59:21;0.73;;;0.30;;
23986;SDS011;12514;52.140;5.602;2022-07-06T12:01:49;0.65;;;0.13;;
23986;SDS011;12514;52.140;5.602;2022-07-06T12:04:14;2.60;;;0.50;;
23986;SDS011;12514;52.140;5.602;2022-07-06T12:06:40;1.98;;;0.38;;
23986;SDS011;12514;52.140;5.602;2022-07-06T12:09:08;0.38;;;0.30;;
23986;SDS011;12514;52.140;5.602;2022-07-06T12:11:35;2.75;;;0.40;;
23986;SDS011;12514;52.140;5.602;2022-07-06T12:14:15;1.60;;;0.47;;
23986;SDS011;12514;52.140;5.602;2022-07-06T12:16:42;0.60;;;0.40;;
23986;SDS011;12514;52.140;5.602;2022-07-06T12:19:08;1.05;;;0.30;;
23986;SDS011;12514;52.140;5.602;2022-07-06T12:21:36;0.75;;;0.30;;
23986;SDS011;12514;52.140;5.602;2022-07-06T12:24:07;0.40;;;0.30;;
23986;SDS011;12514;52.140;5.602;2022-07-06T12:26:38;0.93;;;0.30;;
23986;SDS011;12514;52.140;5.602;2022-07-06T12:29:09;0.70;;;0.40;;
23986;SDS011;12514;52.140;5.602;2022-07-06T12:31:42;3.15;;;0.30;;
23986;SDS011;12514;52.140;5.602;2022-07-06T12:34:13;0.82;;;0.30;;
23986;SDS011;12514;52.140;5.602;2022-07-06T12:36:44;1.92;;;0.20;;
23986;SDS011;12514;52.140;5.602;2022-07-06T12:39:18;0.93;;;0.30;;
23986;SDS011;12514;52.140;5.602;2022-07-06T12:44:15;1.27;;;0.20;;
23986;SDS011;12514;52.140;5.602;2022-07-06T12:46:42;1.67;;;0.20;;
23986;SDS011;12514;52.140;5.602;2022-07-06T12:49:12;0.38;;;0.30;;
23986;SDS011;12514;52.140;5.602;2022-07-06T12:51:54;0.40;;;0.20;;
23986;SDS011;12514;52.140;5.602;2022-07-06T12:54:33;1.27;;;0.40;;
23986;SDS011;12514;52.140;5.602;2022-07-06T13:02:16;1.10;;;0.30;;
23986;SDS011;12514;52.140;5.602;2022-07-06T13:04:57;0.30;;;0.20;;
23986;SDS011;12514;52.140;5.602;2022-07-06T13:07:25;0.88;;;0.43;;
23986;SDS011;12514;52.140;5.602;2022-07-06T13:09:52;1.83;;;0.35;;
23986;SDS011;12514;52.140;5.602;2022-07-06T13:12:18;2.50;;;0.30;;
23986;SDS011;12514;52.140;5.602;2022-07-06T13:14:45;0.52;;;0.30;;
23986;SDS011;12514;52.140;5.602;2022-07-06T13:17:10;2.50;;;0.60;;
23986;SDS011;12514;52.140;5.602;2022-07-06T13:19:36;0.70;;;0.30;;
23986;SDS011;12514;52.140;5.602;2022-07-06T13:22:02;0.70;;;0.45;;
23986;SDS011;12514;52.140;5.602;2022-07-06T13:24:28;0.32;;;0.30;;
23986;SDS011;12514;52.140;5.602;2022-07-06T13:26:54;0.40;;;0.35;;
23986;SDS011;12514;52.140;5.602;2022-07-06T13:29:20;1.33;;;0.32;;
23986;SDS011;12514;52.140;5.602;2022-07-06T13:31:46;0.88;;;0.40;;
23986;SDS011;12514;52.140;5.602;2022-07-06T13:34:11;1.13;;;0.32;;
23986;SDS011;12514;52.140;5.602;2022-07-06T13:36:38;1.05;;;0.52;;
23986;SDS011;12514;52.140;5.602;2022-07-06T13:39:04;1.25;;;0.43;;
23986;SDS011;12514;52.140;5.602;2022-07-06T13:41:31;0.28;;;0.20;;
23986;SDS011;12514;52.140;5.602;2022-07-06T13:43:57;1.58;;;0.30;;
23986;SDS011;12514;52.140;5.602;2022-07-06T13:46:25;2.47;;;0.50;;
23986;SDS011;12514;52.140;5.602;2022-07-06T13:48:54;0.52;;;0.28;;
23986;SDS011;12514;52.140;5.602;2022-07-06T13:51:21;0.20;;;0.20;;
23986;SDS011;12514;52.140;5.602;2022-07-06T13:53:47;0.52;;;0.40;;
23986;SDS011;12514;52.140;5.602;2022-07-06T13:56:12;2.33;;;0.50;;
23986;SDS011;12514;52.140;5.602;2022-07-06T13:58:38;1.02;;;0.40;;
23986;SDS011;12514;52.140;5.602;2022-07-06T14:01:04;4.75;;;0.60;;
23986;SDS011;12514;52.140;5.602;2022-07-06T14:03:30;0.60;;;0.40;;
23986;SDS011;12514;52.140;5.602;2022-07-06T14:05:56;1.95;;;0.55;;
23986;SDS011;12514;52.140;5.602;2022-07-06T14:08:24;1.63;;;0.40;;
23986;SDS011;12514;52.140;5.602;2022-07-06T14:10:50;0.57;;;0.38;;
23986;SDS011;12514;52.140;5.602;2022-07-06T14:13:17;3.33;;;0.40;;
23986;SDS011;12514;52.140;5.602;2022-07-06T14:19:04;1.58;;;0.40;;
23986;SDS011;12514;52.140;5.602;2022-07-06T14:21:30;1.25;;;0.35;;
23986;SDS011;12514;52.140;5.602;2022-07-06T14:23:56;0.60;;;0.40;;
23986;SDS011;12514;52.140;5.602;2022-07-06T14:26:22;1.63;;;0.38;;
23986;SDS011;12514;52.140;5.602;2022-07-06T14:28:47;1.63;;;0.65;;
23986;SDS011;12514;52.140;5.602;2022-07-06T14:31:13;2.70;;;0.50;;
23986;SDS011;12514;52.140;5.602;2022-07-06T14:33:39;1.48;;;0.65;;
23986;SDS011;12514;52.140;5.602;2022-07-06T14:36:05;1.30;;;0.73;;
23986;SDS011;12514;52.140;5.602;2022-07-06T14:38:30;0.50;;;0.50;;
23986;SDS011;12514;52.140;5.602;2022-07-06T14:40:56;2.42;;;0.70;;
23986;SDS011;12514;52.140;5.602;2022-07-06T14:43:22;6.65;;;0.77;;
23986;SDS011;12514;52.140;5.602;2022-07-06T14:49:10;1.75;;;0.65;;
23986;SDS011;12514;52.140;5.602;2022-07-06T14:51:35;1.95;;;0.60;;
23986;SDS011;12514;52.140;5.602;2022-07-06T14:54:01;2.03;;;0.73;;
23986;SDS011;12514;52.140;5.602;2022-07-06T14:56:26;2.50;;;0.50;;
23986;SDS011;12514;52.140;5.602;2022-07-06T14:58:52;0.90;;;0.50;;
23986;SDS011;12514;52.140;5.602;2022-07-06T15:05:05;0.90;;;0.40;;
23986;SDS011;12514;52.140;5.602;2022-07-06T15:07:31;0.85;;;0.40;;
23986;SDS011;12514;52.140;5.602;2022-07-06T15:09:57;2.15;;;0.73;;
23986;SDS011;12514;52.140;5.602;2022-07-06T15:12:22;3.17;;;0.75;;
23986;SDS011;12514;52.140;5.602;2022-07-06T15:14:48;1.25;;;0.40;;
23986;SDS011;12514;52.140;5.602;2022-07-06T15:17:14;2.13;;;0.88;;
23986;SDS011;12514;52.140;5.602;2022-07-06T15:19:41;2.35;;;0.70;;
23986;SDS011;12514;52.140;5.602;2022-07-06T15:22:08;2.10;;;0.75;;
23986;SDS011;12514;52.140;5.602;2022-07-06T15:24:34;1.35;;;0.50;;
23986;SDS011;12514;52.140;5.602;2022-07-06T15:27:01;2.25;;;1.10;;
23986;SDS011;12514;52.140;5.602;2022-07-06T15:29:27;1.88;;;0.90;;
23986;SDS011;12514;52.140;5.602;2022-07-06T15:31:53;2.03;;;1.00;;
23986;SDS011;12514;52.140;5.602;2022-07-06T15:34:18;1.88;;;1.00;;
23986;SDS011;12514;52.140;5.602;2022-07-06T15:36:44;1.25;;;0.70;;
23986;SDS011;12514;52.140;5.602;2022-07-06T15:39:10;2.67;;;0.70;;
23986;SDS011;12514;52.140;5.602;2022-07-06T15:41:35;1.05;;;0.70;;
23986;SDS011;12514;52.140;5.602;2022-07-06T15:44:01;1.08;;;0.77;;
23986;SDS011;12514;52.140;5.602;2022-07-06T15:49:49;2.72;;;1.00;;
23986;SDS011;12514;52.140;5.602;2022-07-06T15:52:14;2.17;;;0.90;;
23986;SDS011;12514;52.140;5.602;2022-07-06T15:54:40;2.13;;;1.13;;
23986;SDS011;12514;52.140;5.602;2022-07-06T15:57:06;5.72;;;1.25;;
23986;SDS011;12514;52.140;5.602;2022-07-06T15:59:32;2.05;;;1.00;;
23986;SDS011;12514;52.140;5.602;2022-07-06T16:01:58;1.67;;;1.00;;
23986;SDS011;12514;52.140;5.602;2022-07-06T16:04:23;0.77;;;0.77;;
23986;SDS011;12514;52.140;5.602;2022-07-06T16:06:49;2.85;;;1.05;;
23986;SDS011;12514;52.140;5.602;2022-07-06T16:09:15;2.08;;;0.85;;
23986;SDS011;12514;52.140;5.602;2022-07-06T16:11:41;1.45;;;0.90;;
23986;SDS011;12514;52.140;5.602;2022-07-06T16:14:07;2.95;;;1.30;;